createdAt,value
2022-08-24T00:00:00.942Z,17.15
2022-08-24T00:01:00.090Z,17.16
2022-08-24T00:02:00.494Z,17.16
2022-08-24T00:03:01.053Z,17.16
2022-08-24T00:03:59.993Z,17.15
2022-08-24T00:05:00.318Z,17.14
2022-08-24T00:05:59.949Z,17.15
2022-08-24T00:07:00.021Z,17.11
2022-08-24T00:07:59.933Z,17.12
2022-08-24T00:08:59.931Z,17.07
2022-08-24T00:09:59.931Z,17.07
2022-08-24T00:11:00.151Z,17.08
2022-08-24T00:11:59.881Z,17.08
2022-08-24T00:13:00.283Z,17.07
2022-08-24T00:14:00.647Z,17.03
2022-08-24T00:15:00.596Z,17.00
2022-08-24T00:15:59.851Z,17.00
2022-08-24T00:16:59.873Z,16.98
2022-08-24T00:17:59.834Z,16.98
2022-08-24T00:19:00.693Z,16.93
2022-08-24T00:20:00.577Z,16.89
2022-08-24T00:21:00.012Z,16.89
2022-08-24T00:22:00.624Z,16.89
2022-08-24T00:22:59.772Z,16.93
2022-08-24T00:24:00.683Z,16.89
2022-08-24T00:24:59.742Z,16.91
2022-08-24T00:25:59.752Z,16.91
2022-08-24T00:26:59.842Z,16.88
2022-08-24T00:27:59.713Z,16.83
2022-08-24T00:29:03.098Z,16.81
2022-08-24T00:30:00.679Z,16.82
2022-08-24T00:30:59.671Z,16.83
2022-08-24T00:31:59.694Z,16.79
2022-08-24T00:33:00.583Z,16.76
2022-08-24T00:33:59.645Z,16.76
2022-08-24T00:35:00.208Z,16.81
2022-08-24T00:35:59.650Z,16.79
2022-08-24T00:36:59.611Z,16.78
2022-08-24T00:38:00.332Z,16.75
2022-08-24T00:39:00.525Z,16.73
2022-08-24T00:40:00.476Z,16.73
2022-08-24T00:40:59.573Z,16.71
2022-08-24T00:42:00.304Z,16.67
2022-08-24T00:42:59.543Z,16.66
2022-08-24T00:44:00.301Z,16.67
2022-08-24T00:44:59.514Z,16.68
2022-08-24T00:45:59.559Z,16.67
2022-08-24T00:46:59.482Z,16.66
2022-08-24T00:47:59.696Z,16.68
2022-08-24T00:48:59.585Z,16.66
2022-08-24T00:50:00.256Z,16.66
2022-08-24T00:50:59.708Z,16.63
2022-08-24T00:51:59.725Z,16.60
2022-08-24T00:52:59.433Z,16.58
2022-08-24T00:53:59.414Z,16.57
2022-08-24T00:55:00.265Z,16.56
2022-08-24T00:55:59.435Z,16.57
2022-08-24T00:56:59.533Z,16.56
2022-08-24T00:58:00.279Z,16.53
2022-08-24T00:59:00.164Z,16.57
2022-08-24T00:59:59.351Z,16.58
2022-08-24T01:01:00.275Z,16.58
2022-08-24T01:02:01.194Z,16.58
2022-08-24T01:03:01.035Z,16.57
2022-08-24T01:03:59.323Z,16.56
2022-08-24T01:05:00.096Z,16.53
2022-08-24T01:05:59.331Z,16.53
2022-08-24T01:06:59.703Z,16.53
2022-08-24T01:07:59.318Z,16.52
2022-08-24T01:08:59.613Z,16.52
2022-08-24T01:09:59.833Z,16.48
2022-08-24T01:10:59.835Z,16.46
2022-08-24T01:11:59.223Z,16.45
2022-08-24T01:13:01.120Z,16.45
2022-08-24T01:13:59.755Z,16.46
2022-08-24T01:14:59.168Z,16.46
2022-08-24T01:15:59.216Z,16.46
2022-08-24T01:16:59.260Z,16.43
2022-08-24T01:17:59.218Z,16.42
2022-08-24T01:18:59.274Z,16.41
2022-08-24T01:19:59.114Z,16.42
2022-08-24T01:20:59.184Z,16.38
2022-08-24T01:21:59.514Z,16.35
2022-08-24T01:22:59.887Z,16.35
2022-08-24T01:23:59.514Z,16.35
2022-08-24T01:24:59.054Z,16.35
2022-08-24T01:25:59.135Z,16.35
2022-08-24T01:26:59.035Z,16.35
2022-08-24T01:27:59.917Z,16.33
2022-08-24T01:28:59.047Z,16.30
2022-08-24T01:29:59.043Z,16.28
2022-08-24T01:30:59.042Z,16.31
2022-08-24T01:31:59.004Z,16.31
2022-08-24T01:32:58.995Z,16.33
2022-08-24T01:33:59.853Z,16.33
2022-08-24T01:34:58.968Z,16.33
2022-08-24T01:35:59.668Z,16.31
2022-08-24T01:36:58.984Z,16.31
2022-08-24T01:37:58.969Z,16.33
2022-08-24T01:38:59.624Z,16.31
2022-08-24T01:39:59.239Z,16.30
2022-08-24T01:40:59.695Z,16.28
2022-08-24T01:41:58.873Z,16.25
2022-08-24T01:42:59.040Z,16.24
2022-08-24T01:43:59.664Z,16.25
2022-08-24T01:44:59.564Z,16.20
2022-08-24T01:45:59.725Z,16.15
2022-08-24T01:46:59.306Z,16.17
2022-08-24T01:47:59.615Z,16.14
2022-08-24T01:48:58.965Z,16.12
2022-08-24T01:49:59.595Z,16.14
2022-08-24T01:50:58.784Z,16.11
2022-08-24T01:51:58.784Z,16.15
2022-08-24T01:53:05.469Z,16.14
2022-08-24T01:53:59.736Z,16.15
2022-08-24T01:54:58.897Z,16.17
2022-08-24T01:55:59.019Z,16.20
2022-08-24T01:56:59.016Z,16.15
2022-08-24T01:57:58.686Z,16.15
2022-08-24T01:58:58.924Z,16.12
2022-08-24T01:59:58.945Z,16.14
2022-08-24T02:00:58.945Z,16.12
2022-08-24T02:01:58.664Z,16.12
2022-08-24T02:02:59.210Z,16.09
2022-08-24T02:03:58.615Z,16.08
2022-08-24T02:04:59.435Z,16.05
2022-08-24T02:05:59.346Z,16.07
2022-08-24T02:06:58.586Z,16.02
2022-08-24T02:07:59.404Z,16.01
2022-08-24T02:08:58.593Z,16.02
2022-08-24T02:09:58.566Z,16.04
2022-08-24T02:10:58.604Z,16.01
2022-08-24T02:11:58.535Z,15.97
2022-08-24T02:12:58.669Z,15.97
2022-08-24T02:13:58.503Z,15.94
2022-08-24T02:14:58.478Z,15.93
2022-08-24T02:15:58.535Z,15.93
2022-08-24T02:16:58.463Z,15.93
2022-08-24T02:17:58.455Z,15.92
2022-08-24T02:18:58.571Z,15.93
2022-08-24T02:19:58.436Z,15.92
2022-08-24T02:20:58.413Z,15.93
2022-08-24T02:21:58.415Z,15.92
2022-08-24T02:22:58.378Z,15.90
2022-08-24T02:23:59.153Z,15.89
2022-08-24T02:24:58.597Z,15.87
2022-08-24T02:25:59.215Z,15.87
2022-08-24T02:26:58.368Z,15.89
2022-08-24T02:27:58.420Z,15.90
2022-08-24T02:28:58.328Z,15.89
2022-08-24T02:30:00.115Z,15.90
2022-08-24T02:30:58.366Z,15.90
2022-08-24T02:31:58.360Z,15.90
2022-08-24T02:32:58.316Z,15.92
2022-08-24T02:33:58.269Z,15.93
2022-08-24T02:34:58.566Z,15.93
2022-08-24T02:35:58.247Z,15.92
2022-08-24T02:36:58.237Z,15.93
2022-08-24T02:37:58.247Z,15.92
2022-08-24T02:38:58.197Z,15.92
2022-08-24T02:39:58.214Z,15.93
2022-08-24T02:40:59.053Z,15.86
2022-08-24T02:41:58.181Z,15.80
2022-08-24T02:42:58.189Z,15.80
2022-08-24T02:43:58.169Z,15.78
2022-08-24T02:44:58.127Z,15.78
2022-08-24T02:45:59.135Z,15.78
2022-08-24T02:46:58.989Z,15.78
2022-08-24T02:47:58.348Z,15.78
2022-08-24T02:49:11.040Z,15.78
2022-08-24T02:49:59.099Z,15.74
2022-08-24T02:50:58.067Z,15.71
2022-08-24T02:51:58.073Z,15.71
2022-08-24T02:52:58.085Z,15.72
2022-08-24T02:53:58.048Z,15.71
2022-08-24T02:54:58.019Z,15.68
2022-08-24T02:55:58.017Z,15.67
2022-08-24T02:56:57.997Z,15.67
2022-08-24T02:57:58.006Z,15.67
2022-08-24T02:58:57.968Z,15.65
2022-08-24T02:59:57.988Z,15.67
2022-08-24T03:00:58.031Z,15.67
2022-08-24T03:01:57.998Z,15.65
2022-08-24T03:02:58.007Z,15.60
2022-08-24T03:03:57.936Z,15.59
2022-08-24T03:04:57.898Z,15.60
2022-08-24T03:05:57.987Z,15.59
2022-08-24T03:06:57.923Z,15.57
2022-08-24T03:07:58.758Z,15.62
2022-08-24T03:08:57.894Z,15.60
2022-08-24T03:09:57.848Z,15.62
2022-08-24T03:10:57.888Z,15.62
2022-08-24T03:11:57.859Z,15.60
2022-08-24T03:12:59.054Z,15.59
2022-08-24T03:13:57.900Z,15.59
2022-08-24T03:14:57.808Z,15.59
2022-08-24T03:15:57.826Z,15.59
2022-08-24T03:16:57.788Z,15.59
2022-08-24T03:17:57.760Z,15.60
2022-08-24T03:18:57.758Z,15.59
2022-08-24T03:19:57.731Z,15.56
2022-08-24T03:20:57.728Z,15.53
2022-08-24T03:21:57.708Z,15.51
2022-08-24T03:22:57.987Z,15.50
2022-08-24T03:23:57.699Z,15.49
2022-08-24T03:24:57.689Z,15.47
2022-08-24T03:25:57.660Z,15.44
2022-08-24T03:26:57.689Z,15.43
2022-08-24T03:27:57.790Z,15.41
2022-08-24T03:28:57.648Z,15.41
2022-08-24T03:29:57.627Z,15.41
2022-08-24T03:30:57.656Z,15.39
2022-08-24T03:31:57.588Z,15.35
2022-08-24T03:32:57.625Z,15.36
2022-08-24T03:33:57.568Z,15.35
2022-08-24T03:34:57.819Z,15.32
2022-08-24T03:35:57.577Z,15.31
2022-08-24T03:36:57.559Z,15.29
2022-08-24T03:37:57.528Z,15.29
2022-08-24T03:38:57.561Z,15.29
2022-08-24T03:39:57.579Z,15.31
2022-08-24T03:40:57.509Z,15.32
2022-08-24T03:41:57.501Z,15.29
2022-08-24T03:42:57.563Z,15.27
2022-08-24T03:43:57.449Z,15.23
2022-08-24T03:44:57.468Z,15.21
2022-08-24T03:45:57.480Z,15.20
2022-08-24T03:46:57.429Z,15.19
2022-08-24T03:47:57.419Z,15.19
2022-08-24T03:48:57.430Z,15.19
2022-08-24T03:49:57.390Z,15.19
2022-08-24T03:50:57.391Z,15.16
2022-08-24T03:51:57.359Z,15.14
2022-08-24T03:52:57.407Z,15.14
2022-08-24T03:53:57.340Z,15.17
2022-08-24T03:54:57.348Z,15.13
2022-08-24T03:55:57.320Z,15.10
2022-08-24T03:56:57.318Z,15.10
2022-08-24T03:57:57.299Z,15.10
2022-08-24T03:58:57.304Z,15.07
2022-08-24T03:59:57.279Z,15.07
2022-08-24T04:00:57.313Z,15.09
2022-08-24T04:01:57.258Z,15.09
2022-08-24T04:02:57.303Z,15.10
2022-08-24T04:03:57.219Z,15.10
2022-08-24T04:04:57.230Z,15.13
2022-08-24T04:05:57.329Z,15.10
2022-08-24T04:06:57.279Z,15.09
2022-08-24T04:07:57.339Z,15.09
2022-08-24T04:08:57.187Z,15.07
2022-08-24T04:09:57.160Z,15.07
2022-08-24T04:10:57.159Z,15.07
2022-08-24T04:11:57.138Z,15.02
2022-08-24T04:12:57.180Z,15.02
2022-08-24T04:13:57.116Z,15.01
2022-08-24T04:14:57.109Z,14.99
2022-08-24T04:15:57.091Z,14.99
2022-08-24T04:16:57.571Z,14.99
2022-08-24T04:17:57.074Z,15.01
2022-08-24T04:18:57.069Z,14.99
2022-08-24T04:19:57.041Z,14.99
2022-08-24T04:20:57.042Z,14.96
2022-08-24T04:21:57.011Z,14.98
2022-08-24T04:22:57.027Z,14.99
2022-08-24T04:23:56.999Z,14.96
2022-08-24T04:24:57.005Z,14.96
2022-08-24T04:25:56.969Z,14.94
2022-08-24T04:26:56.971Z,14.95
2022-08-24T04:27:56.950Z,14.96
2022-08-24T04:28:56.955Z,14.96
2022-08-24T04:29:56.923Z,14.96
2022-08-24T04:30:56.920Z,14.95
2022-08-24T04:31:56.940Z,14.94
2022-08-24T04:32:56.900Z,14.96
2022-08-24T04:33:56.880Z,14.99
2022-08-24T04:34:56.878Z,14.99
2022-08-24T04:35:56.910Z,15.02
2022-08-24T04:36:56.880Z,15.02
2022-08-24T04:37:56.840Z,14.99
2022-08-24T04:38:56.833Z,15.01
2022-08-24T04:39:56.863Z,14.98
2022-08-24T04:40:56.809Z,14.96
2022-08-24T04:41:56.789Z,14.96
2022-08-24T04:42:57.858Z,14.95
2022-08-24T04:43:56.760Z,14.96
2022-08-24T04:44:56.760Z,14.96
2022-08-24T04:45:56.791Z,14.95
2022-08-24T04:46:56.738Z,14.94
2022-08-24T04:47:56.723Z,14.95
2022-08-24T04:48:56.720Z,14.96
2022-08-24T04:49:56.710Z,14.99
2022-08-24T04:50:56.691Z,14.99
2022-08-24T04:51:57.481Z,15.01
2022-08-24T04:52:56.680Z,14.99
2022-08-24T04:53:56.650Z,14.98
2022-08-24T04:54:56.681Z,15.02
2022-08-24T04:55:56.612Z,15.02
2022-08-24T04:56:56.622Z,15.06
2022-08-24T04:57:56.601Z,15.07
2022-08-24T04:58:56.596Z,15.07
2022-08-24T04:59:56.572Z,15.06
2022-08-24T05:00:56.665Z,15.07
2022-08-24T05:01:56.637Z,15.06
2022-08-24T05:02:56.550Z,15.09
2022-08-24T05:03:56.522Z,15.07
2022-08-24T05:04:56.531Z,15.13
2022-08-24T05:05:56.503Z,15.14
2022-08-24T05:06:56.582Z,15.16
2022-08-24T05:07:56.784Z,15.14
2022-08-24T05:08:56.479Z,15.13
2022-08-24T05:09:56.450Z,15.16
2022-08-24T05:10:56.451Z,15.17
2022-08-24T05:11:56.431Z,15.19
2022-08-24T05:12:56.431Z,15.19
2022-08-24T05:13:56.410Z,15.20
2022-08-24T05:14:56.401Z,15.19
2022-08-24T05:15:56.424Z,15.19
2022-08-24T05:16:56.380Z,15.21
2022-08-24T05:17:56.382Z,15.25
2022-08-24T05:18:56.362Z,15.25
2022-08-24T05:19:56.336Z,15.28
2022-08-24T05:20:56.335Z,15.29
2022-08-24T05:21:56.310Z,15.31
2022-08-24T05:22:58.148Z,15.32
2022-08-24T05:23:56.295Z,15.34
2022-08-24T05:24:56.292Z,15.38
2022-08-24T05:25:56.263Z,15.43
2022-08-24T05:26:56.273Z,15.44
2022-08-24T05:27:56.242Z,15.49
2022-08-24T05:28:56.251Z,15.53
2022-08-24T05:29:56.213Z,15.56
2022-08-24T05:30:56.221Z,15.57
2022-08-24T05:31:56.191Z,15.60
2022-08-24T05:32:56.194Z,15.65
2022-08-24T05:33:56.169Z,15.67
2022-08-24T05:34:56.168Z,15.74
2022-08-24T05:35:56.141Z,15.78
2022-08-24T05:36:56.149Z,15.84
2022-08-24T05:37:56.132Z,15.90
2022-08-24T05:38:57.063Z,15.96
2022-08-24T05:39:56.117Z,16.04
2022-08-24T05:40:56.092Z,16.09
2022-08-24T05:41:56.101Z,16.15
2022-08-24T05:42:56.343Z,16.25
2022-08-24T05:43:56.051Z,16.34
2022-08-24T05:44:56.051Z,16.45
2022-08-24T05:45:56.021Z,16.56
2022-08-24T05:46:56.062Z,16.64
2022-08-24T05:47:56.052Z,16.75
2022-08-24T05:48:56.013Z,16.83
2022-08-24T05:49:55.994Z,16.91
2022-08-24T05:50:55.994Z,16.98
2022-08-24T05:51:56.007Z,17.06
2022-08-24T05:52:55.992Z,17.15
2022-08-24T05:53:56.905Z,17.22
2022-08-24T05:54:56.120Z,17.33
2022-08-24T05:55:56.974Z,17.38
2022-08-24T05:56:55.921Z,17.44
2022-08-24T05:57:55.904Z,17.54
2022-08-24T05:58:55.900Z,17.59
2022-08-24T05:59:56.337Z,17.68
2022-08-24T06:00:55.909Z,17.75
2022-08-24T06:01:55.974Z,17.82
2022-08-24T06:02:56.450Z,17.90
2022-08-24T06:03:55.823Z,18.00
2022-08-24T06:04:56.493Z,18.05
2022-08-24T06:05:55.823Z,18.14
2022-08-24T06:06:55.813Z,18.20
2022-08-24T06:07:55.793Z,18.26
2022-08-24T06:08:56.013Z,18.32
2022-08-24T06:09:55.752Z,18.37
2022-08-24T06:10:56.232Z,18.45
2022-08-24T06:11:55.742Z,18.50
2022-08-24T06:12:55.733Z,18.57
2022-08-24T06:13:57.439Z,18.60
2022-08-24T06:14:56.428Z,18.66
2022-08-24T06:16:19.855Z,18.72
2022-08-24T06:16:57.057Z,18.81
2022-08-24T06:17:55.743Z,18.87
2022-08-24T06:18:55.673Z,18.92
2022-08-24T06:19:55.650Z,19.00
2022-08-24T06:20:57.257Z,19.13
2022-08-24T06:21:55.644Z,19.22
2022-08-24T06:22:55.683Z,19.32
2022-08-24T06:23:55.609Z,19.41
2022-08-24T06:24:55.604Z,19.50
2022-08-24T06:25:55.573Z,19.59
2022-08-24T06:26:56.296Z,19.68
2022-08-24T06:27:55.634Z,19.76
2022-08-24T06:28:55.557Z,19.86
2022-08-24T06:29:55.523Z,19.94
2022-08-24T06:30:55.588Z,20.02
2022-08-24T06:31:56.280Z,20.11
2022-08-24T06:32:56.174Z,20.18
2022-08-24T06:33:55.484Z,20.24
2022-08-24T06:34:55.495Z,20.32
2022-08-24T06:35:55.474Z,20.38
2022-08-24T06:36:55.463Z,20.47
2022-08-24T06:37:55.594Z,20.54
2022-08-24T06:38:55.443Z,20.61
2022-08-24T06:39:56.041Z,20.69
2022-08-24T06:40:55.422Z,20.74
2022-08-24T06:41:55.403Z,20.84
2022-08-24T06:42:55.395Z,20.91
2022-08-24T06:43:55.385Z,21.04
2022-08-24T06:44:55.374Z,21.14
2022-08-24T06:45:55.559Z,21.24
2022-08-24T06:46:56.195Z,21.32
2022-08-24T06:47:55.557Z,21.38
2022-08-24T06:48:56.241Z,21.43
2022-08-24T06:49:56.102Z,21.43
2022-08-24T06:50:55.328Z,21.50
2022-08-24T06:51:55.315Z,21.56
2022-08-24T06:52:56.106Z,21.61
2022-08-24T06:53:56.025Z,21.65
2022-08-24T06:54:55.286Z,21.65
2022-08-24T06:55:56.037Z,21.67
2022-08-24T06:56:55.263Z,21.74
2022-08-24T06:57:55.245Z,21.86
2022-08-24T06:58:55.236Z,21.96
2022-08-24T06:59:55.948Z,22.00
2022-08-24T07:00:55.288Z,22.06
2022-08-24T07:01:56.028Z,22.12
2022-08-24T07:02:55.243Z,22.21
2022-08-24T07:03:55.370Z,22.27
2022-08-24T07:04:55.276Z,22.35
2022-08-24T07:05:55.852Z,22.45
2022-08-24T07:06:56.006Z,22.57
2022-08-24T07:07:55.964Z,22.65
2022-08-24T07:08:55.855Z,22.82
2022-08-24T07:09:55.097Z,22.92
2022-08-24T07:10:55.916Z,22.91
2022-08-24T07:11:55.788Z,22.92
2022-08-24T07:12:55.944Z,22.92
2022-08-24T07:13:55.046Z,22.98
2022-08-24T07:14:55.791Z,23.01
2022-08-24T07:15:56.003Z,23.04
2022-08-24T07:16:55.848Z,23.09
2022-08-24T07:17:55.027Z,23.17
2022-08-24T07:18:55.054Z,23.27
2022-08-24T07:19:55.058Z,23.25
2022-08-24T07:20:55.067Z,23.27
2022-08-24T07:21:55.902Z,23.35
2022-08-24T07:22:54.948Z,23.40
2022-08-24T07:23:54.949Z,23.53
2022-08-24T07:24:54.918Z,23.57
2022-08-24T07:25:57.021Z,23.60
2022-08-24T07:26:55.101Z,23.65
2022-08-24T07:27:55.838Z,23.75
2022-08-24T07:28:54.875Z,23.75
2022-08-24T07:30:10.266Z,23.78
2022-08-24T07:30:55.910Z,23.83
2022-08-24T07:31:54.859Z,23.95
2022-08-24T07:32:55.040Z,24.06
2022-08-24T07:33:54.818Z,24.09
2022-08-24T07:34:54.789Z,24.05
2022-08-24T07:35:55.140Z,24.09
2022-08-24T07:36:54.959Z,24.12
2022-08-24T07:37:55.088Z,24.21
2022-08-24T07:38:55.535Z,24.27
2022-08-24T07:39:54.772Z,24.27
2022-08-24T07:41:20.279Z,24.32
2022-08-24T07:42:11.919Z,24.39
2022-08-24T07:42:55.710Z,24.42
2022-08-24T07:43:54.720Z,24.57
2022-08-24T07:44:54.692Z,24.67
2022-08-24T07:45:54.786Z,24.80
2022-08-24T07:46:55.593Z,24.91
2022-08-24T07:47:56.074Z,25.00
2022-08-24T07:49:05.000Z,25.10
2022-08-24T07:49:55.781Z,25.18
2022-08-24T07:50:54.750Z,25.27
2022-08-24T07:51:54.763Z,25.35
2022-08-24T07:52:54.763Z,25.40
2022-08-24T07:53:54.702Z,25.47
2022-08-24T07:54:55.500Z,25.51
2022-08-24T07:55:54.621Z,25.51
2022-08-24T07:56:55.341Z,25.40
2022-08-24T07:57:54.575Z,25.46
2022-08-24T07:58:54.636Z,25.55
2022-08-24T07:59:54.561Z,25.72
2022-08-24T08:00:55.450Z,25.83
2022-08-24T08:01:55.427Z,25.91
2022-08-24T08:02:55.309Z,25.97
2022-08-24T08:03:55.447Z,26.02
2022-08-24T08:04:54.479Z,26.06
2022-08-24T08:05:54.607Z,25.99
2022-08-24T08:07:54.461Z,26.06
2022-08-24T08:08:55.211Z,26.05
2022-08-24T08:09:55.375Z,26.09
2022-08-24T08:10:55.273Z,26.17
2022-08-24T08:11:55.142Z,26.26
2022-08-24T08:12:54.403Z,26.36
2022-08-24T08:13:54.389Z,26.45
2022-08-24T08:14:54.343Z,26.51
2022-08-24T08:15:56.774Z,26.54
2022-08-24T08:16:55.344Z,26.62
2022-08-24T08:18:02.787Z,26.69
2022-08-24T08:19:11.718Z,26.81
2022-08-24T08:19:55.466Z,26.82
2022-08-24T08:20:54.853Z,26.85
2022-08-24T08:21:54.864Z,26.89
2022-08-24T08:22:54.264Z,26.95
2022-08-24T08:23:54.264Z,27.04
2022-08-24T08:24:54.364Z,27.06
2022-08-24T08:25:54.481Z,27.12
2022-08-24T08:26:54.577Z,27.17
2022-08-24T08:27:54.235Z,27.17
2022-08-24T08:28:54.195Z,27.10
2022-08-24T08:29:54.193Z,26.95
2022-08-24T08:30:54.338Z,26.89
2022-08-24T08:31:54.175Z,26.97
2022-08-24T08:32:54.425Z,27.04
2022-08-24T08:33:54.225Z,27.13
2022-08-24T08:34:55.322Z,27.24
2022-08-24T08:35:54.545Z,27.28
2022-08-24T08:36:54.443Z,27.32
2022-08-24T08:37:54.986Z,27.43
2022-08-24T08:38:54.096Z,27.39
2022-08-24T08:39:54.705Z,27.29
2022-08-24T08:40:54.086Z,27.32
2022-08-24T08:41:54.075Z,27.37
2022-08-24T08:42:54.076Z,27.43
2022-08-24T08:43:54.084Z,27.54
2022-08-24T08:44:54.837Z,27.62
2022-08-24T08:45:54.055Z,27.70
2022-08-24T08:46:54.015Z,27.79
2022-08-24T08:47:54.048Z,27.88
2022-08-24T08:48:53.966Z,27.97
2022-08-24T08:49:54.007Z,28.07
2022-08-24T08:50:54.013Z,28.15
2022-08-24T08:51:53.968Z,28.24
2022-08-24T08:52:53.946Z,28.33
2022-08-24T08:53:53.926Z,28.36
2022-08-24T08:54:54.597Z,28.39
2022-08-24T08:55:53.950Z,28.43
2022-08-24T08:56:58.589Z,28.46
2022-08-24T08:57:55.629Z,28.54
2022-08-24T08:58:57.439Z,28.67
2022-08-24T08:59:54.630Z,28.81
2022-08-24T09:00:53.853Z,28.90
2022-08-24T09:01:53.931Z,29.00
2022-08-24T09:02:53.808Z,29.06
2022-08-24T09:03:53.848Z,29.14
2022-08-24T09:04:54.372Z,29.18
2022-08-24T09:06:54.507Z,29.16
2022-08-24T09:07:53.788Z,29.19
2022-08-24T09:08:53.755Z,29.26
2022-08-24T09:09:53.749Z,29.30
2022-08-24T09:10:53.759Z,29.24
2022-08-24T09:11:54.189Z,29.15
2022-08-24T09:12:53.709Z,29.21
2022-08-24T09:13:53.712Z,29.27
2022-08-24T09:14:54.188Z,29.28
2022-08-24T09:15:57.608Z,29.39
2022-08-24T09:16:54.359Z,29.49
2022-08-24T09:17:53.727Z,29.58
2022-08-24T09:18:53.708Z,29.65
2022-08-24T09:19:53.663Z,29.74
2022-08-24T09:20:53.620Z,29.74
2022-08-24T09:21:54.470Z,29.83
2022-08-24T09:22:53.621Z,29.94
2022-08-24T09:23:53.598Z,30.07
2022-08-24T09:24:53.573Z,30.19
2022-08-24T09:25:53.581Z,30.24
2022-08-24T09:26:53.552Z,30.26
2022-08-24T09:27:53.571Z,30.29
2022-08-24T09:28:53.875Z,30.34
2022-08-24T09:29:53.884Z,30.42
2022-08-24T09:30:53.556Z,30.45
2022-08-24T09:31:53.511Z,30.46
2022-08-24T09:32:53.492Z,30.43
2022-08-24T09:33:53.502Z,30.32
2022-08-24T09:34:53.462Z,30.20
2022-08-24T09:35:53.462Z,30.26
2022-08-24T09:36:53.453Z,30.37
2022-08-24T09:37:53.452Z,30.49
2022-08-24T09:38:54.247Z,30.54
2022-08-24T09:39:54.200Z,30.49
2022-08-24T09:40:53.403Z,30.51
2022-08-24T09:41:53.402Z,30.53
2022-08-24T09:42:53.372Z,30.55
2022-08-24T09:43:53.474Z,30.61
2022-08-24T09:44:53.373Z,30.67
2022-08-24T09:45:53.396Z,30.70
2022-08-24T09:46:53.335Z,30.80
2022-08-24T09:47:53.334Z,30.84
2022-08-24T09:48:53.334Z,30.91
2022-08-24T09:49:53.761Z,30.97
2022-08-24T09:50:53.309Z,30.98
2022-08-24T09:51:53.304Z,30.99
2022-08-24T09:52:54.184Z,31.02
2022-08-24T09:53:53.736Z,31.07
2022-08-24T09:54:53.282Z,31.10
2022-08-24T09:55:53.285Z,31.13
2022-08-24T09:56:59.885Z,31.19
2022-08-24T09:58:01.888Z,31.20
2022-08-24T09:58:54.230Z,31.25
2022-08-24T09:59:53.225Z,31.31
2022-08-24T10:00:54.542Z,31.31
2022-08-24T10:01:53.239Z,31.25
2022-08-24T10:02:53.163Z,31.25
2022-08-24T10:03:53.165Z,31.31
2022-08-24T10:04:53.218Z,31.35
2022-08-24T10:05:53.230Z,31.38
2022-08-24T10:06:53.136Z,31.47
2022-08-24T10:07:53.116Z,31.50
2022-08-24T10:08:53.122Z,31.47
2022-08-24T10:09:53.097Z,31.10
2022-08-24T10:10:53.085Z,30.88
2022-08-24T10:11:53.085Z,30.61
2022-08-24T10:12:56.306Z,30.67
2022-08-24T10:13:53.059Z,30.76
2022-08-24T10:14:53.026Z,30.86
2022-08-24T10:15:53.024Z,30.99
2022-08-24T10:16:53.164Z,31.13
2022-08-24T10:17:53.018Z,31.32
2022-08-24T10:19:00.515Z,31.43
2022-08-24T10:19:52.993Z,31.54
2022-08-24T10:20:53.056Z,31.61
2022-08-24T10:21:53.028Z,31.68
2022-08-24T10:22:52.966Z,31.62
2022-08-24T10:23:52.947Z,31.70
2022-08-24T10:24:52.941Z,31.73
2022-08-24T10:25:52.908Z,31.81
2022-08-24T10:26:52.887Z,31.92
2022-08-24T10:27:53.631Z,32.03
2022-08-24T10:28:53.078Z,31.99
2022-08-24T10:29:52.887Z,32.00
2022-08-24T10:30:52.857Z,32.06
2022-08-24T10:31:52.917Z,32.18
2022-08-24T10:32:52.835Z,32.30
2022-08-24T10:33:52.848Z,32.32
2022-08-24T10:34:52.811Z,32.07
2022-08-24T10:35:52.818Z,32.06
2022-08-24T10:36:52.791Z,32.10
2022-08-24T10:37:52.786Z,32.14
2022-08-24T10:38:52.781Z,32.23
2022-08-24T10:39:52.796Z,32.29
2022-08-24T10:40:53.080Z,32.38
2022-08-24T10:41:53.918Z,32.18
2022-08-24T10:42:52.730Z,32.14
2022-08-24T10:43:52.734Z,32.15
2022-08-24T10:44:52.689Z,32.14
2022-08-24T10:45:52.752Z,32.18
2022-08-24T10:46:56.577Z,32.22
2022-08-24T10:47:53.670Z,32.32
2022-08-24T10:48:52.985Z,32.37
2022-08-24T10:49:52.678Z,32.47
2022-08-24T10:50:52.639Z,32.48
2022-08-24T10:51:52.693Z,32.52
2022-08-24T10:52:52.603Z,32.65
2022-08-24T10:53:52.630Z,32.78
2022-08-24T10:54:52.591Z,32.89
2022-08-24T10:55:52.725Z,32.79
2022-08-24T10:56:52.590Z,32.65
2022-08-24T10:57:53.229Z,32.74
2022-08-24T10:58:52.552Z,32.87
2022-08-24T10:59:53.117Z,33.00
2022-08-24T11:00:52.607Z,33.04
2022-08-24T11:01:52.624Z,33.07
2022-08-24T11:02:52.490Z,33.18
2022-08-24T11:03:52.500Z,33.31
2022-08-24T11:04:52.493Z,33.39
2022-08-24T11:05:52.827Z,33.44
2022-08-24T11:06:52.455Z,33.41
2022-08-24T11:07:52.461Z,33.47
2022-08-24T11:08:52.433Z,33.63
2022-08-24T11:09:53.617Z,33.81
2022-08-24T11:10:52.413Z,33.93
2022-08-24T11:11:52.465Z,34.06
2022-08-24T11:12:52.867Z,34.17
2022-08-24T11:13:52.382Z,34.17
2022-08-24T11:14:52.370Z,34.03
2022-08-24T11:15:52.416Z,33.87
2022-08-24T11:16:57.028Z,33.73
2022-08-24T11:17:53.415Z,33.66
2022-08-24T11:18:52.599Z,33.66
2022-08-24T11:19:52.575Z,33.44
2022-08-24T11:20:52.304Z,33.29
2022-08-24T11:21:52.374Z,33.12
2022-08-24T11:22:52.594Z,33.11
2022-08-24T11:23:52.297Z,33.18
2022-08-24T11:24:52.287Z,33.22
2022-08-24T11:25:52.290Z,33.21
2022-08-24T11:26:53.765Z,33.07
2022-08-24T11:27:52.235Z,32.87
2022-08-24T11:28:52.216Z,32.74
2022-08-24T11:29:52.258Z,32.63
2022-08-24T11:30:52.207Z,32.57
2022-08-24T11:31:52.214Z,32.55
2022-08-24T11:32:52.158Z,32.47
2022-08-24T11:33:52.229Z,32.37
2022-08-24T11:34:52.158Z,32.28
2022-08-24T11:35:52.916Z,32.19
2022-08-24T11:36:52.118Z,32.13
2022-08-24T11:37:52.136Z,32.10
2022-08-24T11:38:52.125Z,32.06
2022-08-24T11:39:52.146Z,31.99
2022-08-24T11:40:52.125Z,31.95
2022-08-24T11:41:52.076Z,31.95
2022-08-24T11:42:52.123Z,31.89
2022-08-24T11:43:52.056Z,31.76
2022-08-24T11:44:52.062Z,31.70
2022-08-24T11:45:52.027Z,31.65
2022-08-24T11:46:52.056Z,31.54
2022-08-24T11:47:52.007Z,31.53
2022-08-24T11:48:52.009Z,31.58
2022-08-24T11:49:51.999Z,31.73
2022-08-24T11:50:51.995Z,31.96
2022-08-24T11:51:52.004Z,32.18
2022-08-24T11:52:51.966Z,32.30
2022-08-24T11:53:51.948Z,32.37
2022-08-24T11:54:51.945Z,32.40
2022-08-24T11:55:57.268Z,32.43
2022-08-24T11:56:52.960Z,32.21
2022-08-24T11:57:51.932Z,32.15
2022-08-24T11:58:51.993Z,32.10
2022-08-24T11:59:51.881Z,32.33
2022-08-24T12:00:51.917Z,32.66
2022-08-24T12:01:52.008Z,32.96
2022-08-24T12:02:52.053Z,33.07
2022-08-24T12:03:52.745Z,32.92
2022-08-24T12:04:51.864Z,32.94
2022-08-24T12:05:51.823Z,32.99
2022-08-24T12:06:55.599Z,33.03
2022-08-24T12:07:52.134Z,33.00
2022-08-24T12:08:51.807Z,32.94
2022-08-24T12:09:51.771Z,32.85
2022-08-24T12:10:51.774Z,32.78
2022-08-24T12:11:51.823Z,32.66
2022-08-24T12:12:51.762Z,32.57
2022-08-24T12:13:51.793Z,32.50
2022-08-24T12:14:51.795Z,32.44
2022-08-24T12:15:52.352Z,32.38
2022-08-24T12:16:51.759Z,32.35
2022-08-24T12:17:51.913Z,32.30
2022-08-24T12:18:51.692Z,32.26
2022-08-24T12:19:52.025Z,32.23
2022-08-24T12:20:51.663Z,32.19
2022-08-24T12:21:51.702Z,32.06
2022-08-24T12:22:51.779Z,32.19
2022-08-24T12:23:51.622Z,32.37
2022-08-24T12:24:51.655Z,32.50
2022-08-24T12:25:51.604Z,32.65
2022-08-24T12:26:51.715Z,32.79
2022-08-24T12:27:51.589Z,33.00
2022-08-24T12:28:54.488Z,33.26
2022-08-24T12:29:51.693Z,33.45
2022-08-24T12:30:51.647Z,33.65
2022-08-24T12:31:51.612Z,33.87
2022-08-24T12:32:51.545Z,33.91
2022-08-24T12:33:51.504Z,34.02
2022-08-24T12:34:51.590Z,34.13
2022-08-24T12:35:51.477Z,34.13
2022-08-24T12:36:51.501Z,34.27
2022-08-24T12:37:51.466Z,34.35
2022-08-24T12:38:51.505Z,34.40
2022-08-24T12:39:51.534Z,34.49
2022-08-24T12:40:51.447Z,34.58
2022-08-24T12:41:51.427Z,34.62
2022-08-24T12:42:52.492Z,34.72
2022-08-24T12:43:51.418Z,34.81
2022-08-24T12:44:51.396Z,34.77
2022-08-24T12:45:51.413Z,34.78
2022-08-24T12:46:51.428Z,34.58
2022-08-24T12:47:51.348Z,34.56
2022-08-24T12:48:51.542Z,34.52
2022-08-24T12:49:51.357Z,34.53
2022-08-24T12:50:51.369Z,34.43
2022-08-24T12:51:51.325Z,34.58
2022-08-24T12:52:51.306Z,34.81
2022-08-24T12:53:51.301Z,35.02